Time;durP1;ratioP1;P1;durP2;ratioP2;P2;SDS_P1;SDS_P2;PMS_P1;PMS_P2;Temp;Humidity;BMP_temperature;BMP_pressure;BME280_temperature;BME280_humidity;BME280_pressure;Samples;Min_cycle;Max_cycle;Signal;HPM_P1;HPM_P2
2021/07/30 00:01:21;;;;;;;11.07;7.05;;;24.80;72.80;;;;;;6149718;23;20499;-69
2021/07/30 00:03:47;;;;;;;6.65;5.93;;;24.80;72.90;;;;;;6148359;23;20096;-69
2021/07/30 00:06:14;;;;;;;11.35;6.90;;;24.80;73.20;;;;;;6150480;23;20028;-69
2021/07/30 00:08:40;;;;;;;11.43;6.55;;;24.70;73.30;;;;;;6149576;23;20044;-69
2021/07/30 00:11:07;;;;;;;9.10;6.47;;;24.80;73.10;;;;;;6149373;23;20025;-69
2021/07/30 00:13:33;;;;;;;6.75;5.93;;;24.70;73.10;;;;;;6149542;23;20355;-69
2021/07/30 00:15:59;;;;;;;6.70;6.00;;;24.80;73.10;;;;;;6149393;23;20037;-69
2021/07/30 00:18:25;;;;;;;9.15;5.28;;;24.90;73.00;;;;;;6149556;23;20359;-69
2021/07/30 00:20:51;;;;;;;10.52;6.65;;;24.80;73.20;;;;;;6149939;23;21420;-69
2021/07/30 00:23:17;;;;;;;6.30;5.72;;;24.90;73.10;;;;;;6149855;23;20045;-69
2021/07/30 00:25:43;;;;;;;6.47;5.95;;;24.90;73.00;;;;;;6149687;23;20032;-69
2021/07/30 00:28:09;;;;;;;7.07;6.38;;;24.80;73.20;;;;;;6149534;23;20025;-69
2021/07/30 00:30:35;;;;;;;12.50;6.18;;;24.70;73.30;;;;;;6149652;23;20028;-70
2021/07/30 00:33:01;;;;;;;11.40;6.07;;;24.80;73.20;;;;;;6149472;23;20025;-69
2021/07/30 00:35:26;;;;;;;7.78;6.15;;;24.80;73.00;;;;;;6149630;23;20022;-69
2021/07/30 00:37:53;;;;;;;9.00;5.53;;;24.80;73.00;;;;;;6149350;23;20105;-69
2021/07/30 00:40:18;;;;;;;10.18;5.88;;;24.70;73.10;;;;;;6149527;23;20045;-69
2021/07/30 00:42:54;;;;;;;7.50;5.75;;;24.70;73.20;;;;;;6173096;23;20021;-69
2021/07/30 00:45:20;;;;;;;9.50;5.30;;;24.60;73.30;;;;;;6149167;23;20021;-69
2021/07/30 00:47:48;;;;;;;7.97;5.25;;;24.60;73.40;;;;;;6149833;23;20021;-69
2021/07/30 00:50:16;;;;;;;6.05;5.43;;;24.70;73.30;;;;;;6149660;23;20021;-69
2021/07/30 00:52:42;;;;;;;6.55;5.95;;;24.60;73.40;;;;;;6150792;23;20749;-69
2021/07/30 00:55:09;;;;;;;7.78;6.00;;;24.50;73.50;;;;;;6151252;23;20464;-69
2021/07/30 00:57:36;;;;;;;10.10;5.80;;;24.40;73.60;;;;;;6150963;23;20158;-70
2021/07/30 01:00:04;;;;;;;6.82;5.63;;;24.40;73.70;;;;;;6151253;23;20360;-69
2021/07/30 01:02:32;;;;;;;6.85;5.55;;;24.40;73.40;;;;;;6151620;23;20032;-69
2021/07/30 01:04:58;;;;;;;8.18;5.63;;;24.40;73.50;;;;;;6151364;23;20022;-69
2021/07/30 01:07:24;;;;;;;6.85;5.53;;;24.40;73.50;;;;;;6151463;23;20088;-69
2021/07/30 01:09:50;;;;;;;11.60;5.30;;;24.40;73.40;;;;;;6151548;23;20045;-69
2021/07/30 01:12:17;;;;;;;7.30;5.78;;;24.30;73.40;;;;;;6153593;23;20025;-69
2021/07/30 01:14:44;;;;;;;6.43;5.88;;;24.30;73.60;;;;;;6151101;23;20399;-69
2021/07/30 01:17:10;;;;;;;6.95;5.32;;;24.20;73.70;;;;;;6151614;23;20056;-69
2021/07/30 01:19:36;;;;;;;6.18;5.65;;;24.30;73.50;;;;;;6154825;23;20021;-69
2021/07/30 01:22:26;;;;;;;8.57;6.00;;;24.30;73.70;;;;;;6151110;23;20144;-69
2021/07/30 01:24:53;;;;;;;10.13;5.80;;;24.40;73.40;;;;;;6154675;23;20017;-69
2021/07/30 01:27:20;;;;;;;7.00;5.55;;;24.30;73.50;;;;;;6150840;23;20096;-69
2021/07/30 01:29:48;;;;;;;5.95;5.45;;;24.30;73.70;;;;;;6150684;23;20111;-69
2021/07/30 01:32:14;;;;;;;6.80;5.97;;;24.30;73.90;;;;;;6153113;23;20025;-69
2021/07/30 01:34:42;;;;;;;6.30;5.63;;;24.20;73.80;;;;;;6150704;23;20050;-69
2021/07/30 01:37:12;;;;;;;6.15;4.97;;;24.10;74.20;;;;;;6150823;23;20026;-69
2021/07/30 01:39:38;;;;;;;6.43;4.93;;;24.10;74.30;;;;;;6154121;23;20112;-69
2021/07/30 01:42:05;;;;;;;6.75;5.60;;;24.10;74.50;;;;;;6150880;23;20044;-69
2021/07/30 01:44:31;;;;;;;5.88;5.35;;;24.00;74.90;;;;;;6150530;23;20103;-69
2021/07/30 01:46:57;;;;;;;13.52;6.05;;;24.00;75.00;;;;;;6154201;23;20088;-69
2021/07/30 01:49:23;;;;;;;5.72;5.18;;;24.00;75.00;;;;;;6150695;23;20064;-70
2021/07/30 01:51:49;;;;;;;5.55;4.95;;;24.10;74.60;;;;;;6150664;23;20371;-69
2021/07/30 01:54:15;;;;;;;6.30;5.70;;;24.20;74.30;;;;;;6150544;23;20049;-69
2021/07/30 01:56:44;;;;;;;8.38;5.03;;;24.30;74.10;;;;;;6150448;23;20421;-69
2021/07/30 01:59:10;;;;;;;10.02;4.93;;;24.30;73.80;;;;;;6149909;23;20018;-69
2021/07/30 02:01:36;;;;;;;7.20;4.90;;;24.30;73.80;;;;;;6154357;23;20386;-69
2021/07/30 02:04:03;;;;;;;7.28;5.05;;;24.20;73.80;;;;;;6150556;23;20053;-69
2021/07/30 02:06:29;;;;;;;8.18;5.55;;;24.20;74.40;;;;;;6150634;23;20072;-69
2021/07/30 02:08:57;;;;;;;5.20;4.70;;;24.20;73.80;;;;;;6152526;23;20024;-69
2021/07/30 02:11:23;;;;;;;5.70;4.90;;;24.20;73.20;;;;;;6150560;23;20053;-69
2021/07/30 02:16:33;;;;;;;6.30;5.30;;;24.40;72.80;;;;;;6148988;23;20537;-69
2021/07/30 02:18:59;;;;;;;5.97;4.85;;;24.50;72.30;;;;;;6150752;23;20017;-69
2021/07/30 02:21:25;;;;;;;6.78;5.35;;;24.40;72.50;;;;;;6154363;23;20104;-69
2021/07/30 02:23:51;;;;;;;7.60;5.25;;;24.50;72.00;;;;;;6150274;23;20075;-69
2021/07/30 02:26:17;;;;;;;5.10;4.78;;;24.60;72.00;;;;;;6150419;23;20072;-69
2021/07/30 02:28:43;;;;;;;7.07;5.45;;;24.50;71.80;;;;;;6150428;23;20448;-69
2021/07/30 02:31:10;;;;;;;5.13;4.72;;;24.50;71.80;;;;;;6150126;23;20038;-69
2021/07/30 02:33:36;;;;;;;7.53;4.65;;;24.40;71.90;;;;;;6149035;23;20025;-69
2021/07/30 02:36:02;;;;;;;4.57;4.28;;;24.40;72.60;;;;;;6149638;23;20025;-69
2021/07/30 02:38:28;;;;;;;7.22;5.20;;;24.40;72.20;;;;;;6150646;23;20117;-69
2021/07/30 02:40:54;;;;;;;5.30;4.90;;;24.40;71.90;;;;;;6150558;23;20340;-70
2021/07/30 02:43:20;;;;;;;6.88;4.78;;;24.50;71.50;;;;;;6150751;23;20456;-70
2021/07/30 02:45:47;;;;;;;6.88;5.13;;;24.70;71.00;;;;;;6150100;23;20091;-70
2021/07/30 02:48:13;;;;;;;5.95;5.45;;;24.70;70.60;;;;;;6150347;23;20029;-69
2021/07/30 02:50:39;;;;;;;7.45;5.32;;;24.80;70.80;;;;;;6150227;23;20104;-69
2021/07/30 02:53:05;;;;;;;5.25;4.80;;;24.90;70.40;;;;;;6150142;23;20063;-69
2021/07/30 02:55:31;;;;;;;7.57;5.35;;;24.90;71.00;;;;;;6150080;23;20367;-70
2021/07/30 02:57:57;;;;;;;5.95;4.72;;;24.90;70.40;;;;;;6150401;23;20460;-69
2021/07/30 03:00:23;;;;;;;7.35;5.38;;;24.80;70.30;;;;;;6149908;23;20048;-70
2021/07/30 03:02:49;;;;;;;8.48;5.10;;;24.80;70.30;;;;;;6151565;23;20021;-70
2021/07/30 03:05:15;;;;;;;6.20;5.70;;;24.90;70.10;;;;;;6150007;23;20371;-70
2021/07/30 03:07:41;;;;;;;5.72;5.15;;;24.90;69.90;;;;;;6150185;23;20053;-70
2021/07/30 03:10:07;;;;;;;7.00;5.38;;;24.90;69.70;;;;;;6149820;23;20031;-69
2021/07/30 03:12:35;;;;;;;7.43;5.53;;;24.90;69.70;;;;;;6149936;23;20017;-70
2021/07/30 03:15:02;;;;;;;6.45;4.70;;;25.00;69.30;;;;;;6148540;23;20045;-70
2021/07/30 03:17:28;;;;;;;10.10;4.55;;;25.00;69.00;;;;;;6149958;23;20068;-69
2021/07/30 03:19:54;;;;;;;8.07;5.30;;;25.00;69.00;;;;;;6148214;23;20018;-69
2021/07/30 03:22:20;;;;;;;5.15;4.75;;;24.90;69.10;;;;;;6149695;23;20049;-70
2021/07/30 03:24:46;;;;;;;13.30;5.13;;;24.80;69.30;;;;;;6151616;23;20021;-69
2021/07/30 03:27:12;;;;;;;5.43;4.85;;;24.80;68.90;;;;;;6149837;23;20030;-69
2021/07/30 03:29:38;;;;;;;6.25;4.93;;;24.80;69.30;;;;;;6149766;23;20420;-69
2021/07/30 03:32:05;;;;;;;5.53;5.13;;;24.80;69.20;;;;;;6149801;23;20056;-70
2021/07/30 03:34:33;;;;;;;9.35;4.72;;;24.90;69.00;;;;;;6149597;23;20064;-70
2021/07/30 03:37:00;;;;;;;5.53;5.03;;;24.90;68.70;;;;;;6147945;23;20092;-69
2021/07/30 03:39:27;;;;;;;7.95;5.28;;;24.90;68.70;;;;;;6149564;23;20467;-70
2021/07/30 03:41:53;;;;;;;9.93;4.47;;;24.70;69.20;;;;;;6150037;23;20025;-70
2021/07/30 03:44:19;;;;;;;10.55;5.70;;;24.80;68.90;;;;;;6149581;23;20491;-70
2021/07/30 03:46:46;;;;;;;5.30;4.68;;;24.70;69.10;;;;;;6152174;23;20025;-69
2021/07/30 03:49:12;;;;;;;5.72;5.25;;;24.80;68.80;;;;;;6150677;23;20049;-69
2021/07/30 03:51:38;;;;;;;6.80;5.43;;;24.80;68.80;;;;;;6150108;23;20041;-69
2021/07/30 03:54:04;;;;;;;8.38;5.65;;;24.50;69.30;;;;;;6152671;23;20526;-69
2021/07/30 03:56:30;;;;;;;14.68;8.38;;;24.40;69.90;;;;;;6173229;23;20456;-69
2021/07/30 03:58:56;;;;;;;12.27;7.53;;;24.30;70.20;;;;;;6149665;23;20487;-70
2021/07/30 04:01:22;;;;;;;18.55;8.70;;;24.10;70.60;;;;;;6151933;23;20032;-70
2021/07/30 04:03:48;;;;;;;14.98;8.32;;;24.30;70.20;;;;;;6149781;23;20018;-70
2021/07/30 04:06:14;;;;;;;17.45;9.07;;;24.50;69.80;;;;;;6149674;23;20049;-69
2021/07/30 04:08:40;;;;;;;13.40;9.05;;;24.50;69.70;;;;;;6149715;23;20072;-69
2021/07/30 04:11:06;;;;;;;16.20;10.05;;;24.70;69.10;;;;;;6149916;23;20026;-69
2021/07/30 04:13:35;;;;;;;14.30;9.25;;;24.80;68.90;;;;;;6149729;23;20933;-70
2021/07/30 04:16:05;;;;;;;14.30;9.80;;;24.90;68.70;;;;;;6149633;23;20483;-69
2021/07/30 04:18:31;;;;;;;13.50;9.93;;;25.00;68.40;;;;;;6150335;23;20102;-70
2021/07/30 04:20:57;;;;;;;12.65;10.07;;;25.10;68.30;;;;;;6149482;23;20089;-69
2021/07/30 04:23:24;;;;;;;14.35;9.98;;;25.10;68.40;;;;;;6152010;23;20049;-70
2021/07/30 04:25:50;;;;;;;20.50;10.45;;;25.10;68.40;;;;;;6149831;23;20028;-70
2021/07/30 04:28:16;;;;;;;18.67;10.00;;;25.10;68.60;;;;;;6151330;23;20026;-70
2021/07/30 04:30:42;;;;;;;13.27;9.30;;;25.00;68.70;;;;;;6151146;23;20471;-70
2021/07/30 04:33:09;;;;;;;15.05;9.38;;;25.00;68.80;;;;;;6151416;23;20195;-68
2021/07/30 04:35:37;;;;;;;14.82;10.63;;;25.00;68.90;;;;;;6151488;23;20097;-70
2021/07/30 04:38:03;;;;;;;14.02;8.68;;;25.00;69.30;;;;;;6151559;23;20029;-71
2021/07/30 04:40:29;;;;;;;13.45;8.77;;;25.00;69.60;;;;;;6151541;23;20096;-72
2021/07/30 04:42:56;;;;;;;8.13;7.43;;;24.80;70.20;;;;;;6174341;23;20106;-71
2021/07/30 04:45:22;;;;;;;31.17;11.48;;;24.90;70.10;;;;;;6149550;23;20025;-70
2021/07/30 04:47:49;;;;;;;16.00;8.57;;;24.80;70.90;;;;;;6151470;23;20025;-70
2021/07/30 04:50:15;;;;;;;16.52;7.47;;;24.50;71.50;;;;;;6151334;23;20515;-69
2021/07/30 04:52:41;;;;;;;14.73;7.53;;;24.30;71.90;;;;;;6151466;23;20104;-69
2021/07/30 04:55:07;;;;;;;18.10;6.95;;;24.40;71.50;;;;;;6151692;23;20149;-70
2021/07/30 04:57:33;;;;;;;7.35;5.90;;;24.30;72.00;;;;;;6174330;23;20049;-71
2021/07/30 04:59:59;;;;;;;11.40;5.25;;;24.30;72.00;;;;;;6152642;23;20060;-69
2021/07/30 05:02:25;;;;;;;9.77;5.00;;;24.30;71.70;;;;;;6150811;23;20030;-70
2021/07/30 05:04:55;;;;;;;10.55;5.15;;;24.10;72.10;;;;;;6151104;23;20103;-70
2021/07/30 05:07:23;;;;;;;14.65;5.75;;;24.10;72.10;;;;;;6151166;23;20025;-69
2021/07/30 05:09:49;;;;;;;7.45;4.95;;;24.10;72.90;;;;;;6151171;23;20017;-68
2021/07/30 05:12:16;;;;;;;8.75;5.13;;;24.10;71.80;;;;;;6151701;23;20329;-74
2021/07/30 05:14:42;;;;;;;13.63;5.85;;;24.10;72.70;;;;;;6150781;23;20044;-72
2021/07/30 05:17:08;;;;;;;15.00;5.68;;;24.10;72.70;;;;;;6145211;23;20521;-64
2021/07/30 05:19:34;;;;;;;9.80;5.10;;;24.20;72.50;;;;;;6150289;23;20022;-65
2021/07/30 05:22:00;;;;;;;7.18;4.68;;;24.20;71.60;;;;;;6174072;23;20372;-65
2021/07/30 05:24:26;;;;;;;9.40;4.78;;;24.40;71.10;;;;;;6150638;23;20025;-64
2021/07/30 05:26:53;;;;;;;12.50;5.65;;;24.40;71.00;;;;;;6150286;23;20053;-64
2021/07/30 05:29:19;;;;;;;11.23;5.57;;;24.40;70.90;;;;;;6150368;23;20026;-64
2021/07/30 05:31:45;;;;;;;6.20;5.03;;;24.30;70.60;;;;;;6148781;23;20522;-64
2021/07/30 05:34:11;;;;;;;26.55;5.13;;;24.30;71.00;;;;;;6148790;23;20041;-64
2021/07/30 05:36:37;;;;;;;6.78;4.65;;;24.30;70.90;;;;;;6148269;23;20017;-64
2021/07/30 05:39:03;;;;;;;16.45;4.82;;;24.30;71.20;;;;;;6148418;23;20040;-64
2021/07/30 05:41:29;;;;;;;12.10;4.90;;;24.40;71.10;;;;;;6148983;23;20423;-64
2021/07/30 05:43:55;;;;;;;6.18;4.95;;;24.50;70.80;;;;;;6151308;23;20044;-64
2021/07/30 05:46:21;;;;;;;11.60;6.15;;;24.60;71.30;;;;;;6148700;23;20018;-65
2021/07/30 05:48:47;;;;;;;15.50;6.20;;;24.60;72.40;;;;;;6150521;23;20057;-65
2021/07/30 05:51:13;;;;;;;6.10;5.30;;;24.70;72.60;;;;;;6153021;23;20021;-65
2021/07/30 05:53:40;;;;;;;10.95;4.75;;;24.80;71.90;;;;;;6150716;23;20021;-65
2021/07/30 05:56:07;;;;;;;8.25;4.82;;;24.90;72.50;;;;;;6150472;23;20544;-70
2021/07/30 05:58:33;;;;;;;9.80;5.07;;;24.90;70.90;;;;;;6150429;23;20029;-67
2021/07/30 06:00:59;;;;;;;8.75;4.90;;;24.90;70.50;;;;;;6150223;23;20033;-65
2021/07/30 06:03:25;;;;;;;10.35;5.32;;;24.90;70.90;;;;;;6150418;23;20075;-68
2021/07/30 06:05:51;;;;;;;13.18;4.90;;;25.00;71.00;;;;;;6153110;23;20363;-65
2021/07/30 06:08:17;;;;;;;7.35;5.07;;;25.10;70.40;;;;;;6150727;23;20017;-68
2021/07/30 06:10:43;;;;;;;11.50;4.55;;;25.30;69.90;;;;;;6150442;23;20113;-66
2021/07/30 06:13:09;;;;;;;6.55;3.78;;;25.50;67.80;;;;;;6150934;23;20049;-67
2021/07/30 06:15:35;;;;;;;19.25;5.47;;;25.50;67.20;;;;;;6150627;23;20329;-66
2021/07/30 06:18:03;;;;;;;15.20;5.90;;;25.50;66.00;;;;;;6150186;23;20156;-67
2021/07/30 06:20:31;;;;;;;12.93;4.82;;;25.50;65.70;;;;;;6150131;23;20084;-66
2021/07/30 06:22:58;;;;;;;6.40;3.40;;;25.40;64.60;;;;;;6150040;23;20021;-65
2021/07/30 06:25:24;;;;;;;6.13;3.63;;;25.50;64.20;;;;;;6148978;23;20506;-67
2021/07/30 06:27:50;;;;;;;14.45;3.92;;;25.50;64.00;;;;;;6152415;23;20482;-65
2021/07/30 06:30:16;;;;;;;11.88;4.00;;;25.50;64.10;;;;;;6149988;23;20033;-67
2021/07/30 06:32:44;;;;;;;12.05;3.75;;;25.50;64.40;;;;;;6149857;23;20489;-66
2021/07/30 06:35:13;;;;;;;9.27;3.63;;;25.50;65.10;;;;;;6151119;23;20021;-68
2021/07/30 06:37:39;;;;;;;7.18;3.53;;;25.70;65.30;;;;;;6173228;23;20080;-67
2021/07/30 06:40:05;;;;;;;10.43;4.78;;;25.90;65.10;;;;;;6150194;23;20061;-66
2021/07/30 06:42:32;;;;;;;4.65;3.70;;;26.20;65.00;;;;;;6152581;23;20025;-66
2021/07/30 06:44:59;;;;;;;4.90;3.20;;;26.30;65.20;;;;;;6150960;23;20151;-66
2021/07/30 06:47:25;;;;;;;6.40;3.33;;;26.30;65.20;;;;;;6150406;23;20037;-66
2021/07/30 06:49:51;;;;;;;5.47;3.90;;;26.30;65.00;;;;;;6152540;23;20084;-66
2021/07/30 06:52:17;;;;;;;6.90;3.60;;;26.30;64.90;;;;;;6150605;23;20404;-66
2021/07/30 06:54:44;;;;;;;7.55;3.47;;;26.30;64.90;;;;;;6150732;23;20419;-65
2021/07/30 06:57:11;;;;;;;4.72;3.50;;;26.40;64.50;;;;;;6152469;23;20107;-65
2021/07/30 06:59:38;;;;;;;3.88;3.42;;;26.50;64.00;;;;;;6150033;23;20025;-65
2021/07/30 07:02:05;;;;;;;14.25;4.13;;;26.50;63.90;;;;;;6150487;23;20093;-65
2021/07/30 07:04:32;;;;;;;10.57;3.65;;;26.50;63.90;;;;;;6152378;23;20032;-66
2021/07/30 07:06:58;;;;;;;12.25;3.20;;;26.50;63.60;;;;;;6151240;23;20032;-66
2021/07/30 07:09:24;;;;;;;5.38;3.83;;;26.60;62.70;;;;;;6149877;23;20108;-65
2021/07/30 07:11:50;;;;;;;5.80;3.35;;;26.60;62.50;;;;;;6150106;23;20104;-65
2021/07/30 07:14:16;;;;;;;11.65;3.00;;;26.60;62.30;;;;;;6149550;23;20304;-65
2021/07/30 07:16:43;;;;;;;11.13;3.22;;;26.70;62.10;;;;;;6149543;23;20084;-65
2021/07/30 07:19:09;;;;;;;9.05;3.33;;;26.80;61.70;;;;;;6150334;23;20026;-65
2021/07/30 07:21:39;;;;;;;6.30;3.33;;;27.00;61.30;;;;;;6149824;23;20028;-64
2021/07/30 07:24:07;;;;;;;6.07;2.75;;;27.10;61.20;;;;;;6149977;23;20025;-64
2021/07/30 07:26:36;;;;;;;12.15;3.10;;;27.10;61.00;;;;;;6152648;23;20025;-65
2021/07/30 07:29:06;;;;;;;10.45;3.60;;;27.20;61.30;;;;;;6149663;23;20021;-64
2021/07/30 07:31:32;;;;;;;13.25;3.78;;;27.30;60.70;;;;;;6150128;23;20050;-64
2021/07/30 07:33:58;;;;;;;9.93;2.90;;;27.40;60.70;;;;;;6152706;23;20052;-67
2021/07/30 07:36:24;;;;;;;7.32;2.85;;;27.40;60.70;;;;;;6149769;23;20025;-66
2021/07/30 07:38:53;;;;;;;6.07;3.28;;;27.50;60.60;;;;;;6149435;23;20616;-66
2021/07/30 07:41:19;;;;;;;5.25;2.72;;;27.50;60.20;;;;;;6152021;23;20026;-67
2021/07/30 07:43:45;;;;;;;9.63;3.00;;;27.60;60.30;;;;;;6150027;23;20031;-67
2021/07/30 07:46:12;;;;;;;2.85;2.70;;;27.70;60.20;;;;;;6149744;23;20045;-67
2021/07/30 07:48:37;;;;;;;4.90;2.90;;;27.70;60.40;;;;;;6150010;23;20344;-66
2021/07/30 07:51:03;;;;;;;6.90;3.15;;;27.80;60.60;;;;;;6150508;23;20021;-67
2021/07/30 07:53:29;;;;;;;4.40;3.08;;;27.80;60.40;;;;;;6149914;23;20442;-66
2021/07/30 07:56:03;;;;;;;3.17;2.90;;;27.90;60.00;;;;;;6149651;23;20107;-67
2021/07/30 07:58:31;;;;;;;3.45;2.92;;;27.90;60.20;;;;;;6149385;23;20022;-66
2021/07/30 08:00:57;;;;;;;3.45;3.10;;;28.00;60.20;;;;;;6150598;23;20021;-66
2021/07/30 08:03:24;;;;;;;4.57;2.70;;;28.10;60.10;;;;;;6153348;23;20475;-66
2021/07/30 08:05:50;;;;;;;7.00;2.45;;;28.10;60.00;;;;;;6150086;23;20027;-66
2021/07/30 08:08:16;;;;;;;6.53;2.95;;;28.30;59.90;;;;;;6151979;23;20025;-65
2021/07/30 08:10:42;;;;;;;2.63;2.38;;;28.40;60.40;;;;;;6153734;23;20032;-66
2021/07/30 08:13:08;;;;;;;3.65;2.30;;;28.50;59.60;;;;;;6151621;23;20972;-66
2021/07/30 08:15:34;;;;;;;3.03;2.30;;;28.70;59.50;;;;;;6151589;23;20045;-65
2021/07/30 08:18:00;;;;;;;4.95;2.45;;;28.90;59.30;;;;;;6153627;23;20071;-65
2021/07/30 08:20:26;;;;;;;3.65;3.10;;;29.00;59.00;;;;;;6151902;23;20056;-65
2021/07/30 08:22:52;;;;;;;3.25;3.05;;;29.10;58.70;;;;;;6151118;23;20141;-65
2021/07/30 08:25:18;;;;;;;7.18;2.92;;;29.20;58.70;;;;;;6154471;23;20025;-65
2021/07/30 08:27:44;;;;;;;3.40;3.15;;;29.20;58.50;;;;;;6151675;23;20029;-65
2021/07/30 08:30:11;;;;;;;3.65;3.05;;;29.20;58.70;;;;;;6151089;23;20033;-65
2021/07/30 08:32:37;;;;;;;7.70;3.10;;;29.20;58.50;;;;;;6154546;23;20403;-65
2021/07/30 08:35:03;;;;;;;3.60;2.70;;;29.40;58.10;;;;;;6152650;23;20056;-65
2021/07/30 08:37:30;;;;;;;5.72;3.50;;;29.50;57.90;;;;;;6150803;23;20501;-65
2021/07/30 08:39:55;;;;;;;3.15;2.85;;;29.60;57.60;;;;;;6154444;23;20021;-65
2021/07/30 08:42:21;;;;;;;5.10;3.25;;;29.80;57.50;;;;;;6150120;23;20056;-65
2021/07/30 08:44:48;;;;;;;3.90;3.10;;;29.90;57.50;;;;;;6151479;23;20028;-65
2021/07/30 08:47:18;;;;;;;6.55;2.67;;;30.10;57.10;;;;;;6154887;23;20029;-65
2021/07/30 08:49:44;;;;;;;5.53;2.80;;;30.20;56.80;;;;;;6152152;23;20025;-65
2021/07/30 08:52:12;;;;;;;3.40;3.17;;;30.30;57.20;;;;;;6150839;23;20045;-65
2021/07/30 08:54:41;;;;;;;2.92;2.55;;;30.40;56.70;;;;;;6154713;23;20385;-65
2021/07/30 08:57:11;;;;;;;5.53;3.33;;;30.40;56.20;;;;;;6151095;23;20427;-65
2021/07/30 08:59:39;;;;;;;6.13;2.55;;;30.50;56.20;;;;;;6150835;23;20022;-65
2021/07/30 09:02:09;;;;;;;2.70;2.50;;;30.50;56.40;;;;;;6174016;23;20025;-65
2021/07/30 09:04:36;;;;;;;7.45;3.20;;;30.30;56.40;;;;;;6150737;23;20021;-65
2021/07/30 09:07:02;;;;;;;2.58;2.40;;;30.40;56.00;;;;;;6150537;23;20074;-65
2021/07/30 09:09:35;;;;;;;3.72;2.88;;;30.60;55.80;;;;;;6153794;23;20017;-65
2021/07/30 09:12:03;;;;;;;6.22;2.70;;;30.60;55.70;;;;;;6151129;23;20025;-65
2021/07/30 09:14:38;;;;;;;6.43;3.47;;;30.40;56.00;;;;;;6149677;23;20097;-65
2021/07/30 09:17:05;;;;;;;3.85;3.22;;;30.30;55.80;;;;;;6152596;23;20501;-65
2021/07/30 09:19:32;;;;;;;4.88;2.75;;;30.30;56.00;;;;;;6150364;23;20064;-65
2021/07/30 09:22:18;;;;;;;3.22;2.92;;;30.00;56.90;;;;;;6150848;23;20029;-64
2021/07/30 09:24:44;;;;;;;3.42;2.47;;;29.60;57.70;;;;;;6150920;23;20092;-65
2021/07/30 09:27:12;;;;;;;2.90;2.67;;;29.50;57.90;;;;;;6154403;23;20025;-65
2021/07/30 09:29:40;;;;;;;3.97;2.60;;;29.50;57.60;;;;;;6152999;23;20055;-65
2021/07/30 09:32:13;;;;;;;3.95;2.65;;;29.70;57.50;;;;;;6148872;23;20045;-65
2021/07/30 09:34:44;;;;;;;2.75;2.55;;;29.70;57.20;;;;;;6153496;23;20371;-65
2021/07/30 09:37:13;;;;;;;4.50;2.97;;;29.60;57.30;;;;;;6150284;23;20033;-65
2021/07/30 09:39:42;;;;;;;6.05;2.50;;;29.50;57.30;;;;;;6150400;23;20029;-65
2021/07/30 09:42:31;;;;;;;6.80;2.88;;;29.40;57.40;;;;;;6153065;23;20087;-65
2021/07/30 09:44:59;;;;;;;3.13;2.95;;;29.30;58.70;;;;;;6150641;23;20049;-65
2021/07/30 09:47:28;;;;;;;3.40;3.20;;;29.20;57.90;;;;;;6152650;23;20040;-65
2021/07/30 09:49:58;;;;;;;5.68;2.78;;;29.10;57.90;;;;;;6150665;23;20032;-65
2021/07/30 09:52:26;;;;;;;3.40;2.80;;;29.00;58.30;;;;;;6150623;23;20041;-65
2021/07/30 09:55:02;;;;;;;3.53;2.90;;;28.80;58.60;;;;;;6151235;23;20104;-65
2021/07/30 09:57:39;;;;;;;3.20;2.90;;;28.80;58.50;;;;;;6150418;23;20022;-65
2021/07/30 10:00:07;;;;;;;5.13;2.95;;;28.70;58.90;;;;;;6152924;23;20032;-65
2021/07/30 10:02:37;;;;;;;5.47;3.10;;;28.80;58.60;;;;;;6149881;23;20589;-65
2021/07/30 10:05:05;;;;;;;6.32;2.83;;;28.70;58.40;;;;;;6152556;23;20021;-65
2021/07/30 10:07:36;;;;;;;2.97;2.88;;;28.60;58.60;;;;;;6152516;23;20021;-65
2021/07/30 10:10:23;;;;;;;5.35;3.50;;;28.60;58.50;;;;;;6148305;23;20045;-65
2021/07/30 10:12:53;;;;;;;2.80;2.70;;;28.60;58.60;;;;;;6150714;23;20055;-65
2021/07/30 10:15:19;;;;;;;6.88;2.70;;;28.50;59.40;;;;;;6150507;23;20021;-65
2021/07/30 10:17:46;;;;;;;6.05;3.15;;;28.50;58.70;;;;;;6152995;23;20459;-65
2021/07/30 10:20:14;;;;;;;4.70;2.78;;;28.50;58.70;;;;;;6150406;23;20092;-65
2021/07/30 10:23:03;;;;;;;2.72;2.63;;;28.60;58.50;;;;;;6149811;23;20045;-65
2021/07/30 10:25:34;;;;;;;3.42;3.22;;;28.50;58.60;;;;;;6151442;23;20022;-65
2021/07/30 10:28:20;;;;;;;3.22;2.88;;;28.50;58.70;;;;;;6149969;23;20052;-65
2021/07/30 10:31:01;;;;;;;4.28;3.47;;;28.50;58.60;;;;;;6152085;23;20080;-65
2021/07/30 10:33:30;;;;;;;4.03;3.42;;;28.40;58.80;;;;;;6149809;23;20479;-65
2021/07/30 10:36:01;;;;;;;5.28;3.03;;;28.50;58.70;;;;;;6150141;23;20025;-65
2021/07/30 10:38:28;;;;;;;7.30;3.03;;;28.50;58.60;;;;;;6149946;23;20079;-65
2021/07/30 10:41:09;;;;;;;3.88;3.65;;;28.50;58.50;;;;;;6150232;23;20044;-64
2021/07/30 10:43:50;;;;;;;3.35;3.17;;;28.40;59.20;;;;;;6149241;23;20055;-64
2021/07/30 10:46:18;;;;;;;3.50;3.20;;;28.40;58.40;;;;;;6149971;23;20022;-64
2021/07/30 10:48:45;;;;;;;7.70;3.58;;;28.50;58.50;;;;;;6149829;23;20025;-66
2021/07/30 10:51:23;;;;;;;5.43;2.63;;;28.50;58.60;;;;;;6149873;23;20021;-64
2021/07/30 10:53:52;;;;;;;3.53;3.30;;;28.40;58.50;;;;;;6150059;23;20455;-64
2021/07/30 10:56:18;;;;;;;6.22;3.38;;;28.50;58.60;;;;;;6149897;23;20025;-64
2021/07/30 10:58:44;;;;;;;4.55;3.40;;;28.40;58.40;;;;;;6153343;23;20017;-64
2021/07/30 11:01:13;;;;;;;3.20;2.95;;;28.40;58.50;;;;;;6149789;23;20052;-64
2021/07/30 11:04:05;;;;;;;6.43;3.00;;;28.40;58.50;;;;;;6149342;23;20021;-64
2021/07/30 11:06:42;;;;;;;5.20;3.67;;;28.40;58.30;;;;;;6147260;23;20021;-64
2021/07/30 11:09:08;;;;;;;3.20;3.08;;;28.40;58.30;;;;;;6153725;23;20028;-64
2021/07/30 11:11:53;;;;;;;4.15;3.00;;;28.50;58.40;;;;;;6149759;23;20041;-64
2021/07/30 11:14:26;;;;;;;3.97;3.47;;;28.50;58.40;;;;;;6152172;23;20026;-64
2021/07/30 11:16:54;;;;;;;4.03;3.83;;;28.50;58.30;;;;;;6149321;23;20060;-64
2021/07/30 11:19:26;;;;;;;6.07;3.55;;;28.40;58.20;;;;;;6149473;23;20044;-64
2021/07/30 11:21:52;;;;;;;4.22;3.08;;;28.40;58.20;;;;;;6150032;23;20028;-65
2021/07/30 11:24:19;;;;;;;5.55;3.90;;;28.40;58.20;;;;;;6149692;23;20044;-65
2021/07/30 11:26:46;;;;;;;7.82;3.63;;;28.40;58.40;;;;;;6150207;23;20087;-65
2021/07/30 11:29:14;;;;;;;5.03;3.30;;;28.50;58.40;;;;;;6153080;23;20028;-64
2021/07/30 11:31:58;;;;;;;3.55;3.42;;;28.50;58.40;;;;;;6148763;23;20067;-64
2021/07/30 11:34:35;;;;;;;4.45;3.75;;;28.40;58.40;;;;;;6152891;23;20028;-64
2021/07/30 11:37:04;;;;;;;4.93;3.65;;;28.50;58.40;;;;;;6149780;23;20432;-64
2021/07/30 11:39:33;;;;;;;5.78;3.67;;;28.40;58.40;;;;;;6149528;23;20053;-64
2021/07/30 11:41:59;;;;;;;5.78;3.72;;;28.40;58.40;;;;;;6149291;23;20025;-64
2021/07/30 11:44:25;;;;;;;4.03;3.75;;;28.40;58.40;;;;;;6148422;23;20619;-64
2021/07/30 11:46:58;;;;;;;3.83;3.63;;;28.40;58.40;;;;;;6148953;23;20027;-64
2021/07/30 11:49:43;;;;;;;5.80;3.55;;;28.50;58.40;;;;;;6149677;23;20051;-64
2021/07/30 11:52:17;;;;;;;5.78;4.30;;;28.50;58.40;;;;;;6149311;23;20411;-64
2021/07/30 11:54:43;;;;;;;4.00;3.70;;;28.50;58.50;;;;;;6152039;23;20025;-64
2021/07/30 11:57:09;;;;;;;6.68;3.55;;;28.50;58.50;;;;;;6149595;23;20472;-64
2021/07/30 11:59:46;;;;;;;5.25;3.78;;;28.50;58.60;;;;;;6149741;23;20021;-64
2021/07/30 12:02:12;;;;;;;4.07;3.67;;;28.40;58.50;;;;;;6149125;23;20153;-64
2021/07/30 12:04:55;;;;;;;4.00;3.47;;;28.50;58.60;;;;;;6149273;23;20045;-64
2021/07/30 12:07:24;;;;;;;6.07;3.97;;;28.50;58.70;;;;;;6149524;23;20104;-65
2021/07/30 12:09:59;;;;;;;8.15;3.90;;;28.50;58.60;;;;;;6149410;23;20088;-64
2021/07/30 12:12:32;;;;;;;4.70;3.70;;;28.50;58.60;;;;;;6149492;23;20022;-64
2021/07/30 12:15:00;;;;;;;3.88;3.60;;;28.50;58.50;;;;;;6149466;23;20467;-64
2021/07/30 12:17:30;;;;;;;17.58;4.43;;;28.50;58.40;;;;;;6152569;23;20025;-64
2021/07/30 12:20:02;;;;;;;4.22;3.92;;;28.50;58.40;;;;;;6149733;23;20647;-64
2021/07/30 12:22:46;;;;;;;6.05;3.70;;;28.50;58.40;;;;;;6149252;23;20136;-65
2021/07/30 12:25:32;;;;;;;4.93;4.30;;;28.50;58.20;;;;;;6149081;23;20029;-67
2021/07/30 12:28:07;;;;;;;6.55;3.88;;;28.50;58.20;;;;;;6149395;23;20068;-67
2021/07/30 12:30:33;;;;;;;8.25;4.40;;;28.50;58.20;;;;;;6149224;23;20045;-65
2021/07/30 12:32:59;;;;;;;4.88;3.80;;;28.50;58.40;;;;;;6149142;23;20025;-66
2021/07/30 12:35:35;;;;;;;4.88;4.25;;;28.50;58.20;;;;;;6149294;23;20480;-66
2021/07/30 12:38:06;;;;;;;6.93;4.82;;;28.50;58.10;;;;;;6149312;23;20018;-67
2021/07/30 12:40:38;;;;;;;4.80;4.40;;;28.60;58.30;;;;;;6149370;23;20475;-67
2021/07/30 12:43:09;;;;;;;4.75;4.28;;;28.50;58.30;;;;;;6149410;23;20017;-67
2021/07/30 12:45:51;;;;;;;7.65;4.45;;;28.50;58.20;;;;;;6148897;23;20088;-67
2021/07/30 12:48:19;;;;;;;6.47;4.72;;;28.60;58.30;;;;;;6150823;23;20100;-67
2021/07/30 12:50:46;;;;;;;5.80;3.65;;;28.60;58.20;;;;;;6150916;23;20061;-66
2021/07/30 12:53:17;;;;;;;7.07;4.18;;;28.50;58.20;;;;;;6151375;23;20375;-67